KMSS/MSS METAR and TAF weather

Enter ICAO airport designator
Station Type Date Time Source
KMSS METAR 2020/12/06 00:37 UTC NOAA

KMSS 060037Z AUTO 33014G22KT 10SM BKN014 M02/M04 A2992 RMK AO2 T10171044


Station Type Date Time Source
KMSS Decoded METAR 2020/12/06 00:37 UTC NOAA

MASSENA INTERNATIONAL -RICHARDS FLD, NY, United States (KMSS) 44-56N 074-51W 66M
Dec 05, 2020 - 07:37 PM EST / 2020.12.06 0037 UTC
Wind: from the NNW (330 degrees) at 16 MPH (14 KT) gusting to 25 MPH (22 KT):0
Visibility: 10 mile(s):0
Sky conditions: mostly cloudy
Temperature: 28.9 F (-1.7 C)
Windchill: 17 F (-8 C):1
Dew Point: 24.1 F (-4.4 C)
Relative Humidity: 81%
Pressure (altimeter): 29.92 in. Hg (1013 hPa)
ob: KMSS 060037Z AUTO 33014G22KT 10SM BKN014 M02/M04 A2992 RMK AO2 T10171044
cycle: 0

Station Type Date Time Source
KMSS TAF 2020/12/05 18:22 UTC NOAA

TAF KMSS 051720Z 0518/0618 01009KT P6SM OVC015
FM052300 35011KT P6SM BKN035
FM060100 35010KT P6SM SCT045
FM061300 30009KT P6SM BKN025 BKN060

Example: see airport list